Time;durP1;ratioP1;P1;durP2;ratioP2;P2;SDS_P1;SDS_P2;PMS_P1;PMS_P2;Temp;Humidity;BMP_temperature;BMP_pressure;BME280_temperature;BME280_humidity;BME280_pressure;Samples;Min_cycle;Max_cycle;Signal;HPM_P1;HPM_P2
2022/03/24 00:21:10;;;;;;;18.33;15.00;;;7.10;62.50;;;;;;4720832;30;20222;-81
2022/03/24 02:30:24;;;;;;;;;;;;;;;;;;;;;
2022/03/24 02:47:46;;;;;;;17.27;13.38;;;5.40;77.60;;;;;;4892460;28;20207;-81
2022/03/24 04:02:22;;;;;;;;;;;;;;;;;;;;;
2022/03/24 04:05:30;;;;;;;14.73;12.57;;;4.70;83.90;;;;;;4920578;28;20218;-79
2022/03/24 04:19:17;;;;;;;;;;;;;;;;;;;;;
2022/03/24 04:25:30;;;;;;;17.27;15.30;;;4.60;86.40;;;;;;4936112;28;20642;-80
2022/03/24 04:28:22;;;;;;;17.83;13.85;;;4.50;86.40;;;;;;4980659;28;20601;-81
2022/03/24 04:34:44;;;;;;;16.52;13.95;;;4.50;86.70;;;;;;4944987;28;20236;-80
2022/03/24 04:43:58;;;;;;;22.80;14.60;;;4.40;87.60;;;;;;5001458;28;20315;-81
2022/03/24 04:56:42;;;;;;;22.60;15.02;;;4.30;89.20;;;;;;4974478;28;20208;-80
2022/03/24 04:59:32;;;;;;;24.10;15.20;;;4.30;89.10;;;;;;5017548;28;20652;-81
2022/03/24 05:02:26;;;;;;;17.75;15.40;;;4.30;89.20;;;;;;5014741;28;20210;-81
2022/03/24 05:08:18;;;;;;;21.52;16.88;;;4.30;89.80;;;;;;4995245;28;20206;-80
2022/03/24 05:11:10;;;;;;;19.30;17.00;;;4.20;90.00;;;;;;5033690;28;20225;-81
2022/03/24 05:14:17;;;;;;;19.95;16.60;;;4.30;90.20;;;;;;5030681;28;20290;-81
2022/03/24 05:17:12;;;;;;;21.02;15.60;;;4.20;90.10;;;;;;5021027;28;20206;-80
2022/03/24 05:32:36;;;;;;;23.17;14.77;;;4.20;90.70;;;;;;5034473;28;20616;-80
2022/03/24 05:35:55;;;;;;;18.92;14.52;;;4.10;90.70;;;;;;5016718;28;20199;-81
2022/03/24 05:45:03;;;;;;;19.15;15.35;;;4.20;91.30;;;;;;5020043;28;20290;-80
2022/03/24 05:47:52;;;;;;;17.73;13.55;;;4.20;91.50;;;;;;4999417;28;20684;-81
2022/03/24 05:50:31;;;;;;;18.20;14.30;;;4.20;91.50;;;;;;5036860;28;20244;-80
2022/03/24 05:53:16;;;;;;;20.65;15.38;;;4.20;91.50;;;;;;5022859;28;20210;-80
2022/03/24 05:55:59;;;;;;;20.75;17.70;;;4.20;91.60;;;;;;5017589;28;20264;-81
2022/03/24 06:01:25;;;;;;;18.83;16.08;;;4.30;91.80;;;;;;5020288;28;20245;-79
2022/03/24 06:04:19;;;;;;;20.58;16.17;;;4.30;91.80;;;;;;5027248;28;20206;-77
2022/03/24 06:07:14;;;;;;;19.65;16.00;;;4.40;91.80;;;;;;5022499;28;20203;-79
2022/03/24 06:09:50;;;;;;;17.77;15.93;;;4.40;91.80;;;;;;5016926;28;20227;-79
2022/03/24 06:12:42;;;;;;;16.70;15.10;;;4.50;91.90;;;;;;5025407;28;20656;-80
2022/03/24 06:25:51;;;;;;;17.13;15.02;;;4.80;92.00;;;;;;4999287;28;20209;-81
2022/03/24 06:33:11;;;;;;;18.10;14.75;;;4.90;91.40;;;;;;4929819;29;20217;-81
2022/03/24 06:36:37;;;;;;;18.75;16.63;;;5.10;91.20;;;;;;4858282;29;20220;-80
2022/03/24 06:40:14;;;;;;;;;;;;;;;;;;;;;
2022/03/24 06:48:56;;;;;;;21.35;15.57;;;5.30;93.10;;;;;;4900358;22;20371;-80
2022/03/24 06:51:23;;;;;;;20.55;17.35;;;5.50;92.70;;;;;;5053703;28;20223;-81
2022/03/24 06:53:50;;;;;;;27.42;20.08;;;5.60;92.00;;;;;;5061116;28;20209;-81
2022/03/24 06:56:17;;;;;;;20.83;16.38;;;5.80;91.60;;;;;;5060179;28;20205;-80
2022/03/24 06:58:45;;;;;;;24.02;15.20;;;6.10;90.20;;;;;;5043219;28;20203;-82
2022/03/24 07:01:12;;;;;;;22.55;16.88;;;6.30;88.40;;;;;;5028252;28;20218;-82
2022/03/24 07:03:39;;;;;;;28.02;17.75;;;6.40;87.10;;;;;;5019933;28;20211;-82
2022/03/24 07:06:05;;;;;;;28.73;19.42;;;6.60;86.50;;;;;;5028407;28;20202;-81
2022/03/24 07:08:32;;;;;;;22.38;16.15;;;6.70;85.60;;;;;;5039415;28;20202;-81
2022/03/24 07:10:59;;;;;;;20.52;15.65;;;6.80;85.10;;;;;;5039252;28;20230;-81
2022/03/24 07:13:26;;;;;;;22.40;17.95;;;6.90;84.70;;;;;;5040219;28;20675;-81
2022/03/24 07:15:54;;;;;;;21.88;17.98;;;7.00;84.10;;;;;;5039091;28;20206;-81
2022/03/24 07:18:21;;;;;;;27.40;17.85;;;7.10;83.60;;;;;;5040416;28;20210;-81
2022/03/24 07:20:48;;;;;;;26.52;17.88;;;7.20;83.80;;;;;;5036116;28;20871;-81
2022/03/24 07:23:15;;;;;;;23.00;18.20;;;7.30;83.80;;;;;;5024713;28;20231;-80
2022/03/24 07:25:42;;;;;;;25.30;17.25;;;7.40;83.40;;;;;;5022104;28;20199;-80
2022/03/24 07:28:10;;;;;;;23.58;17.55;;;7.50;82.50;;;;;;5020338;28;20233;-81
2022/03/24 07:30:37;;;;;;;20.63;18.10;;;7.60;82.20;;;;;;5024491;28;20318;-79
2022/03/24 07:33:08;;;;;;;21.27;18.25;;;7.70;81.50;;;;;;5031649;28;20221;-80
2022/03/24 07:35:35;;;;;;;25.15;18.73;;;7.80;81.30;;;;;;5030584;28;20203;-80
2022/03/24 07:38:02;;;;;;;20.75;16.50;;;8.00;81.20;;;;;;5031686;28;20194;-80
2022/03/24 07:40:29;;;;;;;20.98;17.05;;;8.00;81.20;;;;;;5027514;28;20219;-79
2022/03/24 07:42:57;;;;;;;20.42;17.23;;;8.10;80.80;;;;;;5028316;28;20199;-80
2022/03/24 07:45:25;;;;;;;23.27;17.83;;;8.20;80.50;;;;;;5027218;28;20230;-80
2022/03/24 07:48:08;;;;;;;19.95;17.08;;;8.30;80.70;;;;;;5027993;28;20212;-80
2022/03/24 07:50:35;;;;;;;22.20;18.20;;;8.40;80.70;;;;;;5026457;28;20324;-80
2022/03/24 07:53:09;;;;;;;19.92;16.75;;;8.60;80.20;;;;;;5026404;28;20210;-80
2022/03/24 07:55:41;;;;;;;23.08;18.45;;;8.80;79.90;;;;;;5023480;28;20202;-80
2022/03/24 07:58:10;;;;;;;26.92;19.58;;;8.90;79.20;;;;;;5019701;28;20706;-80
2022/03/24 08:00:37;;;;;;;22.27;19.90;;;8.90;80.70;;;;;;5025977;28;20231;-79
2022/03/24 08:03:06;;;;;;;25.80;20.27;;;9.10;81.50;;;;;;5018965;28;20671;-79
2022/03/24 08:05:33;;;;;;;25.45;19.73;;;9.30;81.80;;;;;;5018303;28;20478;-79
2022/03/24 08:07:59;;;;;;;23.47;18.70;;;9.40;81.80;;;;;;5019941;28;20219;-79
2022/03/24 08:10:26;;;;;;;29.80;22.30;;;9.60;80.60;;;;;;5022319;28;20492;-81
2022/03/24 08:12:53;;;;;;;24.50;17.57;;;9.70;79.40;;;;;;5022433;28;20456;-81
2022/03/24 08:15:19;;;;;;;27.83;18.23;;;9.90;77.80;;;;;;5040252;28;20462;-81
2022/03/24 08:17:46;;;;;;;26.33;19.50;;;10.00;76.80;;;;;;5032965;28;20491;-81
2022/03/24 08:20:15;;;;;;;28.80;21.33;;;10.10;75.60;;;;;;5019205;28;20504;-81
2022/03/24 08:22:42;;;;;;;26.37;20.00;;;10.20;74.00;;;;;;5020013;28;20535;-81
2022/03/24 08:25:10;;;;;;;24.03;18.93;;;10.30;73.00;;;;;;5018540;28;20499;-81
2022/03/24 08:27:36;;;;;;;27.90;19.80;;;10.40;73.40;;;;;;5017462;28;20549;-81
2022/03/24 08:30:05;;;;;;;23.83;18.67;;;10.50;74.40;;;;;;5017498;28;20489;-81
2022/03/24 08:32:32;;;;;;;24.97;18.03;;;10.70;70.60;;;;;;5017398;28;20943;-81
2022/03/24 08:34:58;;;;;;;22.07;18.43;;;10.80;70.00;;;;;;5017747;28;20452;-81
2022/03/24 08:37:26;;;;;;;24.20;19.93;;;11.00;69.50;;;;;;5017734;28;20456;-81
2022/03/24 08:39:53;;;;;;;20.17;18.07;;;11.10;68.20;;;;;;5017946;28;20476;-81
2022/03/24 08:42:20;;;;;;;26.43;18.17;;;11.20;68.80;;;;;;5017493;28;20457;-81
2022/03/24 08:44:47;;;;;;;22.47;19.17;;;11.30;68.40;;;;;;5017757;28;20456;-81
2022/03/24 08:47:14;;;;;;;26.73;21.27;;;11.50;65.10;;;;;;5017722;28;20464;-81
2022/03/24 08:49:41;;;;;;;25.00;18.60;;;11.70;62.80;;;;;;5016812;28;20499;-81
2022/03/24 08:52:09;;;;;;;29.57;19.27;;;11.80;62.80;;;;;;5017216;28;20463;-81
2022/03/24 08:54:37;;;;;;;22.90;19.53;;;11.90;63.30;;;;;;5019696;28;20457;-81
2022/03/24 08:57:05;;;;;;;26.37;17.90;;;12.00;64.80;;;;;;5019349;28;21020;-81
2022/03/24 08:59:32;;;;;;;25.47;18.03;;;12.20;63.90;;;;;;5020065;28;20471;-81
2022/03/24 09:01:59;;;;;;;29.80;21.83;;;12.40;62.90;;;;;;5019762;28;20871;-81
2022/03/24 09:04:26;;;;;;;25.67;18.40;;;12.50;62.40;;;;;;5019509;28;20473;-81
2022/03/24 09:06:53;;;;;;;23.73;18.73;;;12.60;63.10;;;;;;5019593;28;20465;-81
2022/03/24 09:09:22;;;;;;;24.77;19.27;;;12.80;64.40;;;;;;5018060;28;20473;-81
2022/03/24 09:11:50;;;;;;;23.20;19.20;;;12.90;65.00;;;;;;5017468;28;20465;-81
2022/03/24 09:14:17;;;;;;;27.47;22.40;;;13.10;63.90;;;;;;5019906;28;20460;-81
2022/03/24 09:16:44;;;;;;;23.57;20.60;;;13.20;63.10;;;;;;5021926;28;20462;-81
2022/03/24 09:19:12;;;;;;;23.63;20.20;;;13.30;63.80;;;;;;5021612;28;20481;-81
2022/03/24 09:21:38;;;;;;;24.30;19.23;;;13.30;62.60;;;;;;5021637;28;20449;-81
2022/03/24 09:24:06;;;;;;;26.53;21.60;;;13.50;61.90;;;;;;5021547;28;20839;-82
2022/03/24 09:26:33;;;;;;;22.77;20.37;;;13.60;61.80;;;;;;5021631;28;20450;-80
2022/03/24 09:29:01;;;;;;;20.83;18.63;;;13.70;60.90;;;;;;5020869;28;21058;-80
2022/03/24 09:31:28;;;;;;;24.40;19.97;;;13.80;58.70;;;;;;5021439;28;20487;-80
2022/03/24 09:33:55;;;;;;;24.77;20.23;;;14.00;59.20;;;;;;5021662;28;20783;-80
2022/03/24 09:36:22;;;;;;;21.47;18.87;;;14.10;59.10;;;;;;5021088;28;20447;-80
2022/03/24 09:38:48;;;;;;;23.73;19.47;;;14.20;58.50;;;;;;5021607;28;20461;-80
2022/03/24 09:41:16;;;;;;;20.03;17.77;;;14.30;57.70;;;;;;5019120;28;20448;-80
2022/03/24 09:43:44;;;;;;;27.57;20.43;;;14.50;58.20;;;;;;5019065;28;20550;-80
2022/03/24 09:46:15;;;;;;;21.70;19.13;;;14.60;58.70;;;;;;5020130;28;20455;-80
2022/03/24 09:48:42;;;;;;;22.77;19.83;;;14.80;58.70;;;;;;5022211;28;20450;-80
2022/03/24 09:51:09;;;;;;;20.73;18.27;;;15.00;57.80;;;;;;5022123;28;20489;-80
2022/03/24 09:53:39;;;;;;;24.97;18.80;;;15.20;57.90;;;;;;5023259;28;20971;-80
2022/03/24 09:56:06;;;;;;;24.83;19.30;;;15.40;57.90;;;;;;5026868;28;20965;-80
2022/03/24 09:58:33;;;;;;;27.27;20.53;;;15.60;57.50;;;;;;5021574;28;20451;-80
2022/03/24 10:01:02;;;;;;;24.40;19.97;;;15.80;56.50;;;;;;5036678;28;20527;-81
2022/03/24 10:03:33;;;;;;;23.73;20.47;;;16.00;56.00;;;;;;5023096;28;20454;-80
2022/03/24 10:06:02;;;;;;;25.30;21.53;;;16.20;54.60;;;;;;5021050;28;20455;-82
2022/03/24 10:08:30;;;;;;;24.60;20.77;;;16.30;55.40;;;;;;5021204;28;20459;-81
2022/03/24 10:11:00;;;;;;;28.13;21.43;;;16.30;54.70;;;;;;5020760;28;20577;-81
2022/03/24 10:13:44;;;;;;;23.10;20.50;;;16.40;52.70;;;;;;5020432;28;20817;-81
2022/03/24 10:16:12;;;;;;;21.13;19.00;;;16.60;54.10;;;;;;5021126;28;20456;-81
2022/03/24 10:19:00;;;;;;;26.40;21.30;;;16.80;53.70;;;;;;5022059;28;20494;-81
2022/03/24 10:21:31;;;;;;;23.63;21.13;;;16.90;53.50;;;;;;5034622;28;20477;-81
2022/03/24 10:24:00;;;;;;;25.73;22.67;;;17.00;52.10;;;;;;5026871;28;20523;-81
2022/03/24 10:26:43;;;;;;;24.43;20.93;;;16.90;50.70;;;;;;5022159;28;20542;-81
2022/03/24 10:29:11;;;;;;;23.83;21.40;;;16.90;51.40;;;;;;5024768;28;20489;-82
2022/03/24 10:31:43;;;;;;;22.30;19.73;;;17.00;51.30;;;;;;5028852;28;20478;-81
2022/03/24 10:34:13;;;;;;;24.00;21.57;;;17.30;51.00;;;;;;5020549;28;20452;-81
2022/03/24 10:36:42;;;;;;;24.80;20.40;;;17.50;51.00;;;;;;5021196;28;20464;-81
2022/03/24 10:39:09;;;;;;;20.33;17.47;;;17.60;50.00;;;;;;5020616;28;20539;-81
2022/03/24 10:41:38;;;;;;;21.20;18.23;;;17.70;45.60;;;;;;5020314;28;20446;-81
2022/03/24 10:44:10;;;;;;;20.43;17.63;;;17.70;44.80;;;;;;5020284;28;20468;-81
2022/03/24 10:46:39;;;;;;;21.27;19.00;;;17.90;45.00;;;;;;5020341;28;20457;-81
2022/03/24 10:49:20;;;;;;;19.07;16.90;;;18.00;43.70;;;;;;5021971;28;20560;-81
2022/03/24 10:51:50;;;;;;;21.30;19.20;;;18.20;42.80;;;;;;5025740;28;20492;-81
2022/03/24 10:54:28;;;;;;;18.83;17.00;;;18.20;41.70;;;;;;5022492;28;20806;-81
2022/03/24 10:56:58;;;;;;;19.03;17.03;;;18.20;39.70;;;;;;5020748;28;20461;-81
2022/03/24 10:59:32;;;;;;;19.63;17.63;;;18.00;37.90;;;;;;5020545;28;20479;-81
2022/03/24 11:02:02;;;;;;;19.57;16.53;;;17.90;38.20;;;;;;5020225;28;20540;-81
2022/03/24 11:04:32;;;;;;;17.97;15.57;;;17.90;38.50;;;;;;5021107;28;20457;-81
2022/03/24 11:06:59;;;;;;;17.80;15.90;;;17.80;38.00;;;;;;5020092;28;20958;-81
2022/03/24 11:09:32;;;;;;;16.10;14.33;;;18.20;37.30;;;;;;5020587;28;20470;-81
2022/03/24 11:12:27;;;;;;;14.27;12.87;;;18.70;34.70;;;;;;5020457;28;20529;-81
2022/03/24 11:14:56;;;;;;;17.17;15.20;;;19.40;33.50;;;;;;5019850;28;20462;-81
2022/03/24 11:17:30;;;;;;;16.40;14.63;;;20.00;33.70;;;;;;5020932;28;20461;-81
2022/03/24 11:20:08;;;;;;;16.30;13.13;;;20.60;33.40;;;;;;5020126;28;20472;-81
2022/03/24 11:22:44;;;;;;;15.27;13.87;;;21.30;33.50;;;;;;5023975;28;20456;-82
2022/03/24 11:25:14;;;;;;;17.03;14.90;;;21.90;30.40;;;;;;5027218;28;20442;-81
2022/03/24 11:27:40;;;;;;;15.33;14.00;;;21.90;29.50;;;;;;5019246;28;20455;-81
2022/03/24 11:30:10;;;;;;;14.73;13.43;;;22.10;30.00;;;;;;5020935;28;20479;-77
2022/03/24 11:32:39;;;;;;;15.90;14.40;;;22.40;28.60;;;;;;5021681;28;20801;-79
2022/03/24 11:35:09;;;;;;;15.47;13.90;;;22.60;29.10;;;;;;5030167;28;20824;-79
2022/03/24 11:37:36;;;;;;;13.40;12.20;;;23.10;28.70;;;;;;5040847;28;20449;-78
2022/03/24 11:40:07;;;;;;;15.23;13.77;;;23.10;27.20;;;;;;5034545;28;20481;-79
2022/03/24 11:42:38;;;;;;;15.77;14.37;;;23.00;27.80;;;;;;5026567;28;20460;-78
2022/03/24 11:45:13;;;;;;;15.13;13.60;;;23.10;27.50;;;;;;5031091;28;20469;-78
2022/03/24 11:47:52;;;;;;;16.17;14.60;;;23.30;26.90;;;;;;5038864;28;20479;-80
2022/03/24 11:50:42;;;;;;;14.70;13.40;;;23.40;27.70;;;;;;5047701;28;20501;-80
2022/03/24 11:53:10;;;;;;;14.27;12.87;;;23.40;27.20;;;;;;5049812;28;20520;-82
2022/03/24 11:55:38;;;;;;;15.03;13.53;;;23.50;27.30;;;;;;5047937;28;20457;-80
2022/03/24 11:58:05;;;;;;;13.97;12.67;;;23.80;27.00;;;;;;5041404;28;20441;-78
2022/03/24 12:00:40;;;;;;;16.47;14.77;;;23.80;26.30;;;;;;5048128;28;20453;-77
2022/03/24 12:03:42;;;;;;;14.83;13.33;;;24.10;26.30;;;;;;5060505;28;20447;-78
2022/03/24 12:06:11;;;;;;;16.70;15.20;;;24.10;26.80;;;;;;5034383;28;20522;-77
2022/03/24 12:08:45;;;;;;;15.50;14.03;;;24.50;26.70;;;;;;5025112;28;20574;-79
2022/03/24 12:11:44;;;;;;;15.57;14.00;;;24.50;25.60;;;;;;5016918;28;20561;-80
2022/03/24 12:14:14;;;;;;;17.07;15.40;;;24.30;26.10;;;;;;5017671;28;21038;-79
2022/03/24 12:16:42;;;;;;;15.13;13.63;;;24.30;25.60;;;;;;5017499;28;20450;-79
2022/03/24 12:19:42;;;;;;;16.90;15.20;;;24.30;25.90;;;;;;5016308;28;20475;-80
2022/03/24 12:22:33;;;;;;;14.70;13.00;;;24.80;26.30;;;;;;5016701;28;20495;-79
2022/03/24 12:25:22;;;;;;;13.43;12.13;;;24.90;25.70;;;;;;5015837;28;20446;-78
2022/03/24 12:28:16;;;;;;;15.60;14.20;;;25.40;25.60;;;;;;5016764;28;21007;-79
2022/03/24 12:31:06;;;;;;;15.73;14.33;;;25.20;25.00;;;;;;5016605;28;21015;-80
2022/03/24 12:33:37;;;;;;;16.23;14.83;;;25.70;25.90;;;;;;5022282;28;20544;-80
2022/03/24 12:36:05;;;;;;;16.53;14.87;;;26.50;25.90;;;;;;5033431;28;20460;-80
2022/03/24 12:38:56;;;;;;;17.00;15.30;;;26.70;24.70;;;;;;5024864;28;20941;-79
2022/03/24 12:41:25;;;;;;;15.47;14.07;;;26.20;23.90;;;;;;5016391;28;20459;-79
2022/03/24 12:43:57;;;;;;;17.00;15.50;;;25.30;23.90;;;;;;5015920;28;20449;-79
2022/03/24 12:46:28;;;;;;;17.43;15.80;;;25.10;24.90;;;;;;5020125;28;20500;-79
2022/03/24 12:49:06;;;;;;;14.50;13.10;;;25.40;25.10;;;;;;5035007;28;20447;-78
2022/03/24 12:51:33;;;;;;;16.47;14.77;;;25.60;24.50;;;;;;5024848;28;20495;-79
2022/03/24 12:54:03;;;;;;;17.57;15.87;;;25.80;24.80;;;;;;5016184;28;20465;-80
2022/03/24 12:56:32;;;;;;;17.70;16.07;;;25.80;24.10;;;;;;5017210;28;20501;-77
2022/03/24 12:59:04;;;;;;;17.43;15.60;;;25.80;24.20;;;;;;5017753;28;20484;-79
2022/03/24 13:01:32;;;;;;;21.73;15.43;;;25.30;24.10;;;;;;5025072;28;20470;-79
2022/03/24 13:04:00;;;;;;;16.03;14.43;;;25.70;25.20;;;;;;5014265;28;20465;-80
2022/03/24 13:06:27;;;;;;;16.27;14.77;;;25.20;24.50;;;;;;5022782;28;20467;-79
2022/03/24 13:09:17;;;;;;;16.67;15.17;;;25.70;24.90;;;;;;5045442;28;20472;-79
2022/03/24 13:11:56;;;;;;;16.27;13.37;;;26.00;24.50;;;;;;5019873;28;20861;-78
2022/03/24 13:14:24;;;;;;;16.70;14.87;;;26.40;24.40;;;;;;5017593;28;20952;-81
2022/03/24 13:17:02;;;;;;;16.63;15.10;;;26.40;23.20;;;;;;5015959;28;20477;-80
2022/03/24 13:19:30;;;;;;;18.63;15.10;;;26.80;24.10;;;;;;5012931;28;20489;-80
2022/03/24 13:21:58;;;;;;;17.83;16.07;;;27.10;24.00;;;;;;5007983;28;20546;-79
2022/03/24 13:24:26;;;;;;;16.80;15.27;;;27.00;23.90;;;;;;5015220;28;20461;-80
2022/03/24 13:27:00;;;;;;;16.73;15.20;;;26.80;23.40;;;;;;5028508;28;20468;-79
2022/03/24 13:29:40;;;;;;;16.60;15.20;;;26.70;23.50;;;;;;5028598;28;20533;-79
2022/03/24 13:32:11;;;;;;;16.17;14.77;;;26.80;23.40;;;;;;5014372;28;20486;-81
2022/03/24 13:34:38;;;;;;;17.37;15.87;;;27.00;23.80;;;;;;5016864;28;21033;-79
2022/03/24 13:37:13;;;;;;;16.50;15.10;;;25.70;23.40;;;;;;5030001;28;20459;-79
2022/03/24 13:39:49;;;;;;;17.20;15.70;;;26.00;24.20;;;;;;5023324;28;20470;-79
2022/03/24 13:42:16;;;;;;;17.30;15.87;;;26.40;24.00;;;;;;5021055;28;20523;-80
2022/03/24 13:44:45;;;;;;;16.30;14.70;;;26.80;24.20;;;;;;5022925;28;20457;-79
2022/03/24 13:47:13;;;;;;;17.30;15.70;;;27.40;24.20;;;;;;5017880;28;20451;-79
2022/03/24 13:49:40;;;;;;;16.07;14.67;;;28.40;24.10;;;;;;5030501;28;20480;-80
2022/03/24 13:52:08;;;;;;;16.30;14.80;;;29.30;23.40;;;;;;5019616;28;20492;-80
2022/03/24 13:54:35;;;;;;;16.90;15.50;;;29.00;21.90;;;;;;5028478;28;20461;-81
2022/03/24 13:57:19;;;;;;;17.20;15.50;;;29.00;22.30;;;;;;5016498;28;20455;-81
2022/03/24 13:59:53;;;;;;;17.17;15.30;;;29.10;22.50;;;;;;5027182;28;20545;-81
2022/03/24 14:02:27;;;;;;;17.23;15.73;;;29.60;22.50;;;;;;5035661;28;20880;-80
2022/03/24 14:05:05;;;;;;;18.10;16.30;;;30.00;21.40;;;;;;5019649;28;20459;-81
2022/03/24 14:07:33;;;;;;;16.30;14.90;;;30.50;21.40;;;;;;5027014;28;20504;-79
2022/03/24 14:10:06;;;;;;;17.20;15.87;;;30.80;20.80;;;;;;5026454;28;20485;-80
2022/03/24 14:12:50;;;;;;;16.53;15.03;;;31.30;21.00;;;;;;5016916;28;20454;-78
2022/03/24 14:15:18;;;;;;;17.33;15.80;;;31.50;20.70;;;;;;5031626;28;20462;-79
2022/03/24 14:17:45;;;;;;;17.07;15.57;;;29.30;20.10;;;;;;5028088;28;20873;-78
2022/03/24 14:20:13;;;;;;;14.77;13.37;;;28.10;21.10;;;;;;5024569;28;20486;-78
2022/03/24 14:22:46;;;;;;;18.87;16.97;;;25.90;21.40;;;;;;5020039;28;20901;-78
2022/03/24 14:25:14;;;;;;;17.67;15.83;;;24.90;22.80;;;;;;5026250;28;20457;-77
2022/03/24 14:27:50;;;;;;;16.33;14.73;;;25.00;23.60;;;;;;5024946;28;20463;-81
2022/03/24 14:30:17;;;;;;;17.80;16.03;;;25.60;24.20;;;;;;5020161;28;20474;-81
2022/03/24 14:32:48;;;;;;;16.50;14.93;;;26.00;23.70;;;;;;5030982;28;20471;-80
2022/03/24 14:35:16;;;;;;;16.70;14.87;;;26.00;23.40;;;;;;5033691;28;20460;-81
2022/03/24 14:37:46;;;;;;;16.70;15.13;;;26.30;23.80;;;;;;5037299;28;20460;-78
2022/03/24 14:40:15;;;;;;;15.90;14.33;;;26.50;23.60;;;;;;5036662;28;20541;-80
2022/03/24 14:42:42;;;;;;;16.40;14.90;;;26.30;23.40;;;;;;5039141;28;20484;-81
2022/03/24 14:45:11;;;;;;;16.13;14.57;;;25.90;23.40;;;;;;5033763;28;20470;-80
2022/03/24 14:47:38;;;;;;;16.43;14.93;;;25.90;24.00;;;;;;5028021;28;20460;-80
2022/03/24 14:50:06;;;;;;;15.87;14.57;;;25.90;23.40;;;;;;5026583;28;20484;-81
2022/03/24 14:52:32;;;;;;;15.57;14.17;;;25.90;23.40;;;;;;5031664;28;20658;-80
2022/03/24 14:54:59;;;;;;;15.97;14.37;;;25.90;23.80;;;;;;5039239;28;20468;-81
2022/03/24 14:57:26;;;;;;;15.87;14.57;;;26.10;23.30;;;;;;5023542;28;20961;-80
2022/03/24 14:59:54;;;;;;;14.67;13.27;;;26.00;23.60;;;;;;5023304;28;20858;-80
2022/03/24 15:02:23;;;;;;;17.07;15.60;;;26.30;23.80;;;;;;5026219;28;20486;-80
2022/03/24 15:04:52;;;;;;;16.10;14.60;;;26.20;23.50;;;;;;5024500;28;20485;-80
2022/03/24 15:07:19;;;;;;;16.57;15.13;;;26.40;23.40;;;;;;5020774;28;20452;-80
2022/03/24 15:09:46;;;;;;;15.37;13.83;;;26.50;23.00;;;;;;5019152;28;20509;-79
2022/03/24 15:12:13;;;;;;;14.83;13.53;;;26.70;22.70;;;;;;5027595;28;20998;-80
2022/03/24 15:17:26;;;;;;;15.60;14.30;;;27.30;23.10;;;;;;5037486;28;20475;-79
2022/03/24 15:19:52;;;;;;;15.23;13.57;;;27.10;22.60;;;;;;5022915;28;20477;-79
2022/03/24 15:22:19;;;;;;;13.87;12.60;;;25.70;22.00;;;;;;5033916;28;20505;-80
2022/03/24 15:24:46;;;;;;;15.60;13.83;;;24.60;22.20;;;;;;5021119;28;20459;-81
2022/03/24 15:27:13;;;;;;;14.53;13.33;;;24.80;23.70;;;;;;5029826;28;20459;-80
2022/03/24 15:29:41;;;;;;;14.80;13.57;;;24.80;23.40;;;;;;5020213;28;20473;-80
2022/03/24 15:32:08;;;;;;;12.80;11.67;;;24.10;23.40;;;;;;5032100;28;20450;-80
2022/03/24 15:34:37;;;;;;;14.63;13.20;;;23.80;24.00;;;;;;5028821;28;20454;-78
2022/03/24 15:37:04;;;;;;;14.77;13.47;;;23.60;23.70;;;;;;5024835;28;20478;-81
2022/03/24 15:39:31;;;;;;;15.97;14.30;;;23.90;23.80;;;;;;5027036;28;20497;-81
2022/03/24 15:41:58;;;;;;;14.57;13.27;;;23.90;24.00;;;;;;5024215;28;20481;-80
2022/03/24 15:44:24;;;;;;;12.33;11.23;;;23.80;24.20;;;;;;5024570;28;21137;-81
2022/03/24 15:46:52;;;;;;;14.60;13.10;;;23.30;24.30;;;;;;5025374;28;20454;-80
2022/03/24 15:49:19;;;;;;;16.57;13.80;;;23.00;24.50;;;;;;5021260;28;20485;-76
2022/03/24 15:51:47;;;;;;;14.87;13.43;;;22.00;24.30;;;;;;5033130;28;20474;-79
2022/03/24 15:54:14;;;;;;;13.53;12.17;;;21.50;25.00;;;;;;5032996;28;20967;-80
2022/03/24 15:56:41;;;;;;;12.23;11.13;;;21.20;25.30;;;;;;5024443;28;20820;-79
2022/03/24 15:59:11;;;;;;;14.50;13.03;;;20.80;25.00;;;;;;5038450;28;20472;-78
2022/03/24 16:01:37;;;;;;;12.33;11.23;;;20.70;25.80;;;;;;5041906;28;20485;-79
2022/03/24 16:04:04;;;;;;;15.33;13.10;;;20.60;25.40;;;;;;5037142;28;20483;-79
2022/03/24 16:06:31;;;;;;;12.63;11.33;;;20.40;25.50;;;;;;5019061;28;20455;-78
2022/03/24 16:09:00;;;;;;;11.87;10.77;;;20.20;26.00;;;;;;5033792;28;20519;-80
2022/03/24 16:11:27;;;;;;;14.23;12.93;;;20.10;26.30;;;;;;5035572;28;20553;-80
2022/03/24 16:13:54;;;;;;;12.07;10.97;;;20.00;26.30;;;;;;5034137;28;20428;-80
2022/03/24 16:16:21;;;;;;;12.07;10.97;;;20.00;26.40;;;;;;5035390;28;20949;-80
2022/03/24 16:18:48;;;;;;;14.10;12.80;;;20.10;26.30;;;;;;5019360;28;20452;-79
2022/03/24 16:21:15;;;;;;;13.27;11.37;;;20.00;26.10;;;;;;5032279;28;20537;-80
2022/03/24 16:23:42;;;;;;;14.17;12.73;;;20.10;26.20;;;;;;5022526;28;20465;-79
2022/03/24 16:26:12;;;;;;;16.20;11.67;;;20.20;26.30;;;;;;5033991;28;20453;-80
2022/03/24 16:28:40;;;;;;;13.03;11.63;;;20.00;26.40;;;;;;5028537;28;21031;-80
2022/03/24 16:31:06;;;;;;;13.87;12.10;;;20.20;26.80;;;;;;5036130;28;20521;-80
2022/03/24 16:33:33;;;;;;;13.70;12.40;;;20.20;26.90;;;;;;5025573;28;20456;-80
2022/03/24 16:36:01;;;;;;;13.90;12.50;;;20.20;26.70;;;;;;5016806;28;20450;-78
2022/03/24 16:38:28;;;;;;;12.43;11.20;;;20.00;26.80;;;;;;5023519;28;20507;-81
2022/03/24 16:41:44;;;;;;;15.17;13.57;;;19.60;26.50;;;;;;5018969;28;20469;-81
2022/03/24 16:44:13;;;;;;;16.63;12.93;;;19.70;26.80;;;;;;5022907;28;20530;-79
2022/03/24 16:46:47;;;;;;;11.53;10.40;;;19.70;27.10;;;;;;5018104;28;20455;-79
2022/03/24 16:49:24;;;;;;;12.60;11.40;;;19.60;27.00;;;;;;5029728;28;20489;-80
2022/03/24 16:51:59;;;;;;;14.10;12.87;;;19.30;26.80;;;;;;5015002;28;20453;-80
2022/03/24 16:57:11;;;;;;;11.90;10.80;;;19.40;27.30;;;;;;5016306;28;20446;-79
2022/03/24 17:02:31;;;;;;;14.77;13.37;;;19.30;27.10;;;;;;5022763;28;20911;-79
2022/03/24 17:04:59;;;;;;;12.63;11.47;;;19.20;27.20;;;;;;5016946;28;20500;-79
2022/03/24 17:07:27;;;;;;;13.57;12.27;;;19.10;27.50;;;;;;5020970;28;20845;-79
2022/03/24 17:09:54;;;;;;;12.10;10.83;;;18.80;27.30;;;;;;5015670;28;20483;-80
2022/03/24 17:12:22;;;;;;;12.10;9.20;;;18.80;27.60;;;;;;5016760;28;20446;-81
2022/03/24 17:14:50;;;;;;;12.60;11.30;;;18.70;27.60;;;;;;5016321;28;20535;-81
2022/03/24 17:17:16;;;;;;;12.20;11.00;;;18.40;27.70;;;;;;5017522;28;20820;-79
2022/03/24 17:19:43;;;;;;;12.40;11.20;;;18.40;28.40;;;;;;5019068;28;20869;-79
2022/03/24 17:22:11;;;;;;;11.83;10.90;;;18.10;28.30;;;;;;5016747;28;20500;-80
2022/03/24 17:28:00;;;;;;;11.40;10.37;;;18.00;28.50;;;;;;5026506;28;20430;-82
2022/03/24 17:30:28;;;;;;;13.07;10.63;;;18.00;28.50;;;;;;5029268;28;20567;-81
2022/03/24 17:32:55;;;;;;;11.20;10.00;;;17.90;29.10;;;;;;5032938;28;20444;-82
2022/03/24 17:35:24;;;;;;;12.37;11.10;;;17.70;28.80;;;;;;5044088;28;20458;-81
2022/03/24 17:37:54;;;;;;;12.33;9.93;;;17.60;28.90;;;;;;5041795;28;20460;-82
2022/03/24 17:40:22;;;;;;;13.53;10.93;;;17.30;29.40;;;;;;5043142;28;20981;-82
2022/03/24 17:42:50;;;;;;;12.87;11.67;;;17.20;29.50;;;;;;5043698;28;20486;-81
2022/03/24 17:45:17;;;;;;;12.93;11.40;;;17.00;29.80;;;;;;5043763;28;20455;-81
2022/03/24 17:47:57;;;;;;;12.77;11.57;;;16.70;29.70;;;;;;5031603;28;20447;-81
2022/03/24 17:57:08;;;;;;;11.20;10.07;;;16.00;31.20;;;;;;5050576;28;20450;-80
2022/03/24 18:03:04;;;;;;;12.27;10.60;;;15.60;32.00;;;;;;5044348;28;20857;-81
2022/03/24 18:05:31;;;;;;;13.50;11.33;;;15.30;32.70;;;;;;5022170;28;20455;-80
2022/03/24 18:07:58;;;;;;;13.60;10.20;;;15.10;32.70;;;;;;5021050;28;20496;-81
2022/03/24 18:10:25;;;;;;;11.83;9.80;;;15.00;32.90;;;;;;5021189;28;20486;-80
2022/03/24 18:12:52;;;;;;;11.37;10.20;;;14.80;33.30;;;;;;5021421;28;20481;-80
2022/03/24 18:15:19;;;;;;;12.50;11.20;;;14.70;33.80;;;;;;5022021;28;20460;-79
2022/03/24 18:17:47;;;;;;;11.70;10.70;;;14.70;34.50;;;;;;5020870;28;20451;-80
2022/03/24 18:20:16;;;;;;;12.37;9.73;;;14.60;34.30;;;;;;5021992;28;20467;-80
2022/03/24 18:22:43;;;;;;;12.60;11.30;;;14.50;34.70;;;;;;5020955;28;20517;-80
2022/03/24 18:25:10;;;;;;;11.03;9.93;;;14.50;34.80;;;;;;5021700;28;20446;-80
2022/03/24 18:27:37;;;;;;;14.43;11.60;;;14.30;34.70;;;;;;5021398;28;20458;-79
2022/03/24 18:30:05;;;;;;;16.37;12.07;;;14.20;35.00;;;;;;5020756;28;20473;-80
2022/03/24 18:32:32;;;;;;;18.10;11.97;;;13.90;35.20;;;;;;5022292;28;20500;-80
2022/03/24 18:35:01;;;;;;;12.67;11.47;;;13.80;35.80;;;;;;5023020;28;20736;-81